Startpagina
METAR-TAF:

METAR-TAF

Vliegvelden :

Ubon Ratchathani, Thailand

breedte: 15-15N, lengte: 104-52E, hoogte: 123 m

Actueel weer

Dit bericht is 1 uur en het 14 minuten geleden gemaakt, om 21:00 UTC
Wind 4 kt uit het noordnoordoosten
Temperatuur 19°C
Vochtigheid 83%
Druk 1016 hPa
Zicht: 9000 m

METAR: VTUU 192100Z 03004KT 9000 NSC 19/16 Q1016 NOSIG

Tijdstip: 05:14 (22:14 UTC)

Verwachting

Dit bericht is 5 uur en het 14 minuten geleden gemaakt, om 17:00 UTC
Verwachting geldig van 19 om 18 UTC tot 20 om 18 UTC
Wind 8 kt uit het noordnoordoosten
Zicht: 9000 m

TAF: VTUU 191700Z 1918/2018 03008KT 9000 NSC

Waarnemingen en weersverwachtingen van meer dan 4000 vliegvelden (METAR en TAF).

De beschikbare stations zijn de gele en rode punten op de kaart.

Ga met uw muis naar het station om de naam te zien.

Klik dan om waarnemingen en weersverwachtingen te zien.

kaart wijzigen: klik op de groene knoppen met een zwart kruis om in te zoomen, op de groene knop met een streepje om uit te zoomen of op de groene pijlen voor aangrenzende kaarten.


METAR-TAF: